Terminal Aerodrome Forecast
Issued by NWS

Home | Current Version | Previous Version | Text Only | Print | Product List | Glossary On
Versions: 1 2 3 4 5 6 7 8 9 10 11 12 13 14 15 16 17 18 19 20
000
FTUS45 KCYS 182300
TAFAIA
TAF
KAIA 182323Z 1900/1924 18017G25KT P6SM BKN250
     FM190200 17014KT P6SM FEW100
     FM190700 33010KT P6SM SCT080
     FM191300 05008KT P6SM BKN100=

USA.gov is the U.S. government's official web portal to all federal, state and local government web resources and services.